Time;durP1;ratioP1;P1;durP2;ratioP2;P2;SDS_P1;SDS_P2;PMS_P1;PMS_P2;Temp;Humidity;BMP_temperature;BMP_pressure;BME280_temperature;BME280_humidity;BME280_pressure;Samples;Min_cycle;Max_cycle;Signal;HPM_P1;HPM_P2
2022/03/22 00:00:30;;;;;;;22.45;11.23;;;;;;;6.09;67.68;98009.50;4960016;28;20042;-71
2022/03/22 00:02:56;;;;;;;22.17;11.02;;;;;;;6.13;67.79;98004.66;4957503;28;20042;-71
2022/03/22 00:05:23;;;;;;;18.55;9.82;;;;;;;6.09;68.36;98012.19;4968925;28;20388;-71
2022/03/22 00:07:49;;;;;;;22.92;10.88;;;;;;;6.08;69.44;98012.38;4966366;28;20417;-70
2022/03/22 00:10:15;;;;;;;20.90;10.70;;;;;;;6.10;68.00;98013.00;4964103;28;20505;-70
2022/03/22 00:12:42;;;;;;;20.27;10.30;;;;;;;6.12;69.05;98008.31;4952627;28;20074;-70
2022/03/22 00:15:09;;;;;;;19.40;10.20;;;;;;;6.05;68.66;98007.41;4964557;28;20434;-70
2022/03/22 00:17:36;;;;;;;18.42;10.48;;;;;;;6.00;70.68;98009.78;4964996;28;20034;-71
2022/03/22 00:20:01;;;;;;;21.38;10.07;;;;;;;5.97;72.21;98005.66;4962827;28;20047;-72
2022/03/22 00:22:27;;;;;;;24.58;10.50;;;;;;;5.96;72.40;98006.66;4966250;28;20121;-70
2022/03/22 00:24:54;;;;;;;22.65;10.50;;;;;;;5.92;72.35;98010.69;4962538;28;20043;-71
2022/03/22 00:27:20;;;;;;;18.65;10.63;;;;;;;5.85;71.62;98009.72;4963964;28;20035;-70
2022/03/22 00:29:46;;;;;;;21.67;10.18;;;;;;;5.78;73.88;98020.25;4965324;28;20525;-70
2022/03/22 00:32:12;;;;;;;20.05;10.27;;;;;;;5.66;77.38;98021.69;4962638;28;20073;-70
2022/03/22 00:34:47;;;;;;;21.88;10.20;;;;;;;5.51;77.17;98007.53;4965636;28;20054;-70
2022/03/22 00:37:17;;;;;;;20.05;11.02;;;;;;;5.40;78.18;98018.59;4967821;28;20034;-70
2022/03/22 00:39:44;;;;;;;17.70;10.95;;;;;;;5.24;79.52;98015.03;4963510;28;20429;-70
2022/03/22 00:42:14;;;;;;;18.95;11.70;;;;;;;5.05;81.15;98018.16;4964096;28;20047;-71
2022/03/22 00:44:39;;;;;;;23.05;11.40;;;;;;;5.05;80.03;98015.50;4963277;28;20291;-70
2022/03/22 00:47:08;;;;;;;21.30;11.15;;;;;;;5.04;80.74;98019.16;4964099;28;20596;-70
2022/03/22 00:49:36;;;;;;;20.13;10.68;;;;;;;5.00;80.61;98017.88;4965699;28;20059;-70
2022/03/22 00:52:04;;;;;;;18.92;11.25;;;;;;;4.94;79.82;98016.72;4961568;28;20042;-72
2022/03/22 00:54:31;;;;;;;19.23;11.15;;;;;;;4.80;82.18;98009.50;4964468;28;20101;-70
2022/03/22 00:56:57;;;;;;;16.95;8.95;;;;;;;4.68;84.01;98010.91;4962927;28;20035;-70
2022/03/22 01:02:07;;;;;;;22.50;10.85;;;;;;;4.73;81.38;98017.34;4964781;28;20038;-70
2022/03/22 01:04:35;;;;;;;17.02;10.15;;;;;;;4.77;79.63;98009.03;4965584;28;20054;-70
2022/03/22 01:07:02;;;;;;;21.92;10.57;;;;;;;4.82;78.75;98014.63;4964127;28;20603;-70
2022/03/22 01:09:28;;;;;;;20.25;11.07;;;;;;;4.81;77.66;98013.81;4965062;28;20038;-71
2022/03/22 01:11:55;;;;;;;17.35;10.30;;;;;;;4.85;76.69;98009.81;4964825;28;20391;-69
2022/03/22 01:14:20;;;;;;;24.38;10.45;;;;;;;4.84;76.95;98012.66;4965372;28;20042;-70
2022/03/22 01:16:45;;;;;;;20.75;10.57;;;;;;;4.80;76.87;98011.34;4961339;28;20038;-70
2022/03/22 01:19:11;;;;;;;25.40;10.45;;;;;;;4.73;79.42;98012.03;4960060;28;20035;-70
2022/03/22 01:21:37;;;;;;;21.67;11.93;;;;;;;4.63;79.58;98006.13;4962820;28;20101;-70
2022/03/22 01:24:06;;;;;;;20.25;9.93;;;;;;;4.56;79.09;98006.97;4960231;28;20038;-71
2022/03/22 01:26:32;;;;;;;16.67;9.90;;;;;;;4.61;77.99;98005.47;4961822;28;20109;-71
2022/03/22 01:28:57;;;;;;;19.55;10.05;;;;;;;4.69;76.37;98004.59;4960417;28;20041;-69
2022/03/22 01:31:25;;;;;;;21.50;10.38;;;;;;;4.75;75.06;97998.63;4959476;28;20125;-71
2022/03/22 01:33:51;;;;;;;20.10;10.90;;;;;;;4.80;74.21;97995.41;4961919;28;20065;-70
2022/03/22 01:36:17;;;;;;;18.83;10.52;;;;;;;4.84;74.86;97994.09;4959202;28;20449;-70
2022/03/22 01:38:44;;;;;;;22.10;10.18;;;;;;;4.83;74.74;97992.44;4961903;28;20534;-71
2022/03/22 01:41:10;;;;;;;18.92;10.43;;;;;;;4.84;72.71;97991.44;4959482;28;20046;-69
2022/03/22 01:43:35;;;;;;;19.05;10.73;;;;;;;4.85;74.92;97995.75;4962815;28;20035;-71
2022/03/22 01:46:02;;;;;;;22.15;9.93;;;;;;;4.88;73.32;97987.41;4959947;28;20039;-69
2022/03/22 01:48:27;;;;;;;18.90;10.02;;;;;;;4.97;71.09;97991.66;4960074;28;20530;-71
2022/03/22 01:50:54;;;;;;;18.75;9.60;;;;;;;4.96;71.74;97979.41;4961924;28;20482;-70
2022/03/22 01:53:20;;;;;;;17.63;8.82;;;;;;;4.93;72.57;97982.41;4960969;28;20488;-69
2022/03/22 01:55:45;;;;;;;15.52;9.43;;;;;;;4.75;75.10;97986.19;4962186;28;20081;-70
2022/03/22 01:58:11;;;;;;;17.88;10.00;;;;;;;4.53;77.18;97978.19;4959513;28;20529;-71
2022/03/22 02:00:37;;;;;;;17.27;9.57;;;;;;;4.34;79.73;97979.41;4961187;28;20069;-71
2022/03/22 02:05:56;;;;;;;19.35;9.07;;;;;;;4.25;78.44;97975.13;4961350;28;20039;-70
2022/03/22 02:08:30;;;;;;;19.65;9.68;;;;;;;4.17;80.03;97979.47;4959582;28;20047;-69
2022/03/22 02:10:59;;;;;;;17.50;9.57;;;;;;;4.09;79.91;97965.44;4961748;28;20066;-70
2022/03/22 02:13:25;;;;;;;16.02;9.10;;;;;;;4.11;79.14;97966.06;4960482;28;20125;-70
2022/03/22 02:15:57;;;;;;;18.88;9.55;;;;;;;4.06;78.60;97966.59;4958221;28;20551;-70
2022/03/22 02:18:24;;;;;;;15.32;9.00;;;;;;;4.19;77.34;97972.16;4960000;28;20093;-69
2022/03/22 02:20:50;;;;;;;18.67;8.73;;;;;;;4.17;79.26;97965.41;4959640;28;20039;-70
2022/03/22 02:23:40;;;;;;;15.68;8.82;;;;;;;4.09;78.14;97968.06;4957743;28;20117;-69
2022/03/22 02:26:07;;;;;;;;;;;;;;;4.04;78.94;97962.44;4963066;28;20119;-69
2022/03/22 02:28:32;;;;;;;14.95;8.60;;;;;;;4.00;78.91;97967.28;4961366;28;20403;-71
2022/03/22 02:30:57;;;;;;;18.77;8.93;;;;;;;3.98;78.97;97963.16;4960758;28;20122;-69
2022/03/22 02:33:23;;;;;;;16.63;8.55;;;;;;;3.80;81.38;97963.34;4959620;28;20596;-71
2022/03/22 02:35:50;;;;;;;16.83;9.30;;;;;;;3.79;81.85;97974.94;4959557;28;20082;-71
2022/03/22 02:38:15;;;;;;;18.25;9.65;;;;;;;3.83;79.29;97963.03;4959275;28;20437;-71
2022/03/22 02:40:41;;;;;;;18.30;8.43;;;;;;;3.97;77.33;97957.03;4961409;28;20073;-70
2022/03/22 02:43:08;;;;;;;23.08;9.20;;;;;;;4.00;75.89;97956.69;4961777;28;20299;-70
2022/03/22 02:45:33;;;;;;;21.67;10.07;;;;;;;3.96;76.61;97957.19;4961114;28;20461;-70
2022/03/22 02:47:59;;;;;;;21.95;9.90;;;;;;;3.97;78.27;97956.19;4959391;28;20429;-70
2022/03/22 02:50:24;;;;;;;16.08;9.02;;;;;;;3.95;76.10;97961.66;4958214;28;20388;-70
2022/03/22 02:52:51;;;;;;;15.43;8.43;;;;;;;3.91;76.41;97958.53;4959228;28;20129;-70
2022/03/22 02:55:16;;;;;;;14.30;8.75;;;;;;;3.82;77.50;97953.44;4961413;28;20053;-70
2022/03/22 02:57:43;;;;;;;15.63;8.18;;;;;;;3.77;79.13;97953.94;4961295;28;20073;-70
2022/03/22 03:00:11;;;;;;;14.25;8.50;;;;;;;3.73;79.33;97955.25;4958583;28;20031;-70
2022/03/22 03:02:43;;;;;;;16.50;8.35;;;;;;;3.73;79.08;97951.78;4960099;28;20039;-71
2022/03/22 03:05:10;;;;;;;17.70;9.50;;;;;;;3.69;79.28;97956.59;4957585;28;20047;-70
2022/03/22 03:07:36;;;;;;;14.73;8.30;;;;;;;3.71;77.52;97959.06;4959111;28;20324;-70
2022/03/22 03:10:03;;;;;;;20.70;8.50;;;;;;;3.72;79.36;97955.41;4961818;28;20537;-70
2022/03/22 03:12:29;;;;;;;17.00;9.20;;;;;;;3.74;76.13;97967.53;4960664;28;20331;-71
2022/03/22 03:14:54;;;;;;;17.63;7.95;;;;;;;3.77;74.70;97955.75;4973539;28;20038;-70
2022/03/22 03:17:20;;;;;;;16.50;8.63;;;;;;;3.74;74.05;97964.88;4970692;28;20062;-70
2022/03/22 03:19:45;;;;;;;15.10;8.23;;;;;;;3.76;74.34;97960.22;4956805;28;20146;-71
2022/03/22 03:22:11;;;;;;;18.45;7.82;;;;;;;3.77;72.06;97945.97;4959424;28;20034;-70
2022/03/22 03:24:36;;;;;;;16.55;8.60;;;;;;;3.88;71.24;97960.69;4959718;28;20046;-70
2022/03/22 03:27:02;;;;;;;13.65;8.32;;;;;;;3.94;70.28;97959.19;4958538;28;20033;-70
2022/03/22 03:29:28;;;;;;;13.43;7.88;;;;;;;3.98;67.98;97961.34;4962717;28;20050;-70
2022/03/22 03:31:53;;;;;;;15.18;8.25;;;;;;;4.10;65.35;97967.91;4959200;28;20064;-70
2022/03/22 03:34:19;;;;;;;16.73;7.95;;;;;;;4.26;63.91;97959.06;4957861;28;20413;-70
2022/03/22 03:36:45;;;;;;;14.25;7.80;;;;;;;4.45;60.87;97968.44;4960315;28;20362;-70
2022/03/22 03:39:11;;;;;;;16.15;8.43;;;;;;;4.46;60.55;97967.44;4958824;28;20034;-70
2022/03/22 03:41:53;;;;;;;14.75;7.43;;;;;;;4.47;60.18;97963.78;4959357;28;20039;-70
2022/03/22 03:47:14;;;;;;;15.52;7.85;;;;;;;4.27;64.47;97970.50;4958321;28;20042;-70
2022/03/22 03:49:55;;;;;;;17.15;8.55;;;;;;;4.14;66.12;97965.75;4960349;28;20090;-70
2022/03/22 03:52:24;;;;;;;14.20;8.48;;;;;;;4.00;70.16;97969.94;4958097;28;20048;-70
2022/03/22 03:54:52;;;;;;;32.33;8.48;;;;;;;3.97;67.73;97969.41;4959790;28;20049;-69
2022/03/22 03:57:18;;;;;;;13.93;8.07;;;;;;;3.96;67.18;97965.94;4958582;28;20074;-71
2022/03/22 03:59:44;;;;;;;18.85;9.23;;;;;;;3.95;67.25;97977.53;4958443;28;20045;-70
2022/03/22 04:02:10;;;;;;;16.25;8.13;;;;;;;4.02;64.91;97978.53;4960175;28;20370;-70
2022/03/22 04:04:37;;;;;;;16.15;8.93;;;;;;;4.05;63.92;97980.84;4961137;28;20053;-71
2022/03/22 04:07:08;;;;;;;15.90;8.73;;;;;;;4.00;65.04;97977.06;4957304;28;20038;-70
2022/03/22 04:09:36;;;;;;;15.73;8.30;;;;;;;4.02;63.40;97978.53;4960853;28;20054;-70
2022/03/22 04:12:03;;;;;;;16.48;8.60;;;;;;;4.02;62.86;97978.53;4959032;28;20046;-70
2022/03/22 04:14:28;;;;;;;16.92;8.30;;;;;;;4.07;62.54;97984.16;4959645;28;20311;-70
2022/03/22 04:16:56;;;;;;;14.05;7.90;;;;;;;4.01;62.61;97978.69;4974134;28;20088;-71
2022/03/22 04:19:22;;;;;;;14.98;8.07;;;;;;;4.00;62.84;97974.41;4957290;28;20558;-70
2022/03/22 04:21:48;;;;;;;18.73;8.82;;;;;;;3.94;63.39;97977.72;4957406;28;20035;-70
2022/03/22 04:24:13;;;;;;;17.23;8.73;;;;;;;3.86;64.56;97975.91;4958635;28;20038;-70
2022/03/22 04:26:41;;;;;;;14.40;8.20;;;;;;;3.81;64.75;97978.22;4958956;28;20551;-70
2022/03/22 04:32:41;;;;;;;16.48;8.82;;;;;;;3.62;68.90;97979.44;4959092;28;20043;-70
2022/03/22 04:34:43;;;;;;;15.73;8.50;;;;;;;3.53;69.28;97991.03;4958667;28;20384;-71
2022/03/22 04:37:13;;;;;;;15.73;8.75;;;;;;;3.51;69.40;97987.72;4955093;28;20153;-70
2022/03/22 04:39:40;;;;;;;16.38;8.95;;;;;;;3.47;70.18;97989.03;4958928;28;20046;-70
2022/03/22 04:42:06;;;;;;;16.63;8.88;;;;;;;3.46;71.19;97995.34;4959199;28;20393;-71
2022/03/22 04:44:33;;;;;;;14.25;7.85;;;;;;;3.39;72.14;97984.59;4958662;28;20043;-70
2022/03/22 04:46:59;;;;;;;15.30;8.10;;;;;;;3.30;73.41;97990.88;4961023;28;20077;-71
2022/03/22 04:49:26;;;;;;;18.60;8.70;;;;;;;3.27;74.22;97999.16;4958324;28;20059;-71
2022/03/22 04:57:21;;;;;;;18.70;8.48;;;;;;;3.08;78.01;97995.81;4963534;28;20538;-69
2022/03/22 04:59:47;;;;;;;17.38;8.82;;;;;;;3.01;80.91;98001.91;4960928;28;20039;-70
2022/03/22 05:02:14;;;;;;;17.88;8.88;;;;;;;2.88;79.65;97997.13;4977338;28;20050;-69
2022/03/22 05:04:39;;;;;;;15.98;8.35;;;;;;;2.82;84.35;98002.22;4964181;28;20046;-70
2022/03/22 05:07:06;;;;;;;19.15;8.85;;;;;;;2.79;82.56;98001.53;4963403;28;20507;-71
2022/03/22 05:09:31;;;;;;;18.23;8.73;;;;;;;2.64;84.88;97992.56;4962401;28;20050;-70
2022/03/22 05:11:58;;;;;;;18.73;9.15;;;;;;;2.51;85.86;98000.97;4961580;28;20244;-69
2022/03/22 05:14:24;;;;;;;16.58;9.07;;;;;;;2.55;85.06;98003.28;4957562;28;20046;-70
2022/03/22 05:16:49;;;;;;;19.23;9.23;;;;;;;2.39;87.17;97999.59;4962092;28;20046;-70
2022/03/22 05:19:15;;;;;;;15.88;8.90;;;;;;;2.34;87.22;98004.56;4960130;28;20117;-70
2022/03/22 05:21:41;;;;;;;15.73;8.57;;;;;;;2.24;87.06;98009.94;4961229;28;20274;-71
2022/03/22 05:24:08;;;;;;;17.48;8.27;;;;;;;2.21;89.12;98007.63;4960828;28;20481;-70
2022/03/22 05:26:34;;;;;;;14.60;7.55;;;;;;;2.10;88.82;98010.56;4962188;28;20550;-70
2022/03/22 05:29:02;;;;;;;20.20;9.55;;;;;;;2.09;87.29;98010.69;4959649;28;20752;-71
2022/03/22 05:31:27;;;;;;;17.98;7.78;;;;;;;2.06;89.09;98011.00;4960510;28;20077;-71
2022/03/22 05:33:53;;;;;;;13.60;7.70;;;;;;;1.98;90.71;98006.53;4962443;28;20038;-70
2022/03/22 05:36:19;;;;;;;17.02;9.05;;;;;;;1.84;91.83;98018.47;4959572;28;20034;-69
2022/03/22 05:38:44;;;;;;;15.93;8.93;;;;;;;1.84;92.08;98021.13;4960757;28;20070;-70
2022/03/22 05:41:11;;;;;;;18.45;9.60;;;;;;;1.92;91.73;98020.34;4959663;28;20039;-70
2022/03/22 05:43:36;;;;;;;17.75;8.98;;;;;;;2.05;91.19;98015.47;4959620;28;20288;-70
2022/03/22 05:46:03;;;;;;;14.88;8.68;;;;;;;2.12;91.35;98019.16;4960625;28;20042;-70
2022/03/22 05:48:29;;;;;;;22.10;9.48;;;;;;;2.09;91.25;98014.16;4960795;28;20051;-70
2022/03/22 05:50:55;;;;;;;16.98;8.45;;;;;;;2.19;90.88;98016.72;4964636;28;20838;-70
2022/03/22 05:53:21;;;;;;;15.38;9.43;;;;;;;2.34;90.87;98014.31;4960366;28;20410;-70
2022/03/22 05:55:47;;;;;;;18.30;9.63;;;;;;;2.50;88.74;98015.19;4962135;28;20043;-70
2022/03/22 05:58:13;;;;;;;18.98;10.02;;;;;;;2.58;89.41;98024.13;4961130;28;20109;-70
2022/03/22 06:00:38;;;;;;;18.42;9.75;;;;;;;2.66;89.90;98022.34;4960030;28;20437;-71
2022/03/22 06:03:04;;;;;;;22.48;9.52;;;;;;;2.69;88.34;98019.38;4959952;28;20089;-71
2022/03/22 06:05:29;;;;;;;18.42;9.23;;;;;;;2.77;89.34;98022.03;4960923;28;20500;-70
2022/03/22 06:07:56;;;;;;;17.85;9.43;;;;;;;2.77;88.70;98018.56;4960863;28;20062;-70
2022/03/22 06:10:22;;;;;;;16.58;8.63;;;;;;;2.78;89.82;98023.69;4961316;28;20561;-69
2022/03/22 06:12:53;;;;;;;16.77;8.88;;;;;;;2.79;90.03;98020.03;4959943;28;20042;-71
2022/03/22 06:15:20;;;;;;;19.35;8.80;;;;;;;2.83;89.55;98020.56;4958924;28;20473;-70
2022/03/22 06:18:06;;;;;;;18.60;9.18;;;;;;;2.84;90.76;98024.03;4961025;28;20034;-70
2022/03/22 06:20:34;;;;;;;16.58;8.00;;;;;;;2.92;89.42;98030.16;4961332;28;20034;-70
2022/03/22 06:23:01;;;;;;;18.40;8.73;;;;;;;3.01;89.02;98023.91;4962847;28;20119;-70
2022/03/22 06:25:27;;;;;;;15.77;8.40;;;;;;;3.06;88.93;98031.34;4962818;28;20042;-70
2022/03/22 06:27:54;;;;;;;17.60;8.65;;;;;;;3.08;89.77;98024.91;4959185;28;20042;-70
2022/03/22 06:30:21;;;;;;;17.15;9.15;;;;;;;3.18;90.47;98030.03;4960779;28;20046;-70
2022/03/22 06:32:50;;;;;;;16.05;9.23;;;;;;;3.25;91.08;98030.22;4961240;28;20126;-70
2022/03/22 06:35:20;;;;;;;13.00;7.95;;;;;;;3.32;91.13;98034.69;4959044;28;20063;-71
2022/03/22 06:37:47;;;;;;;17.63;9.40;;;;;;;3.37;92.90;98036.84;4959468;28;20717;-71
2022/03/22 06:40:14;;;;;;;19.05;8.80;;;;;;;3.45;94.84;98039.50;4957415;28;20813;-70
2022/03/22 06:42:42;;;;;;;18.08;9.02;;;;;;;3.54;94.95;98032.38;4956906;28;20112;-70
2022/03/22 06:45:08;;;;;;;18.73;9.45;;;;;;;3.67;92.54;98034.53;4958357;28;20042;-70
2022/03/22 06:47:34;;;;;;;18.27;8.93;;;;;;;3.71;92.46;98033.19;4957900;28;20038;-71
2022/03/22 06:50:01;;;;;;;17.17;9.23;;;;;;;3.71;95.25;98023.44;4956359;28;20043;-71
2022/03/22 06:52:27;;;;;;;14.85;8.68;;;;;;;3.87;94.62;98023.41;4956489;28;20053;-71
2022/03/22 06:54:53;;;;;;;18.30;9.23;;;;;;;3.96;94.62;98031.34;4960159;28;20445;-70
2022/03/22 06:57:19;;;;;;;23.00;9.40;;;;;;;4.02;96.04;98028.84;4956987;28;20066;-70
2022/03/22 06:59:44;;;;;;;17.92;8.90;;;;;;;4.08;96.82;98030.84;4959589;28;20198;-70
2022/03/22 07:02:10;;;;;;;15.38;9.00;;;;;;;4.18;97.75;98031.47;4957892;28;20045;-70
2022/03/22 07:04:38;;;;;;;16.88;8.50;;;;;;;4.30;96.78;98031.94;4961313;28;21152;-71
2022/03/22 07:07:04;;;;;;;17.80;9.25;;;;;;;4.42;97.82;98035.03;4958004;28;20048;-70
2022/03/22 07:09:29;;;;;;;18.33;9.45;;;;;;;4.60;95.17;98034.81;4957506;28;20113;-71
2022/03/22 07:11:56;;;;;;;19.08;9.38;;;;;;;4.65;97.28;98024.50;4956496;28;20042;-70
2022/03/22 07:14:27;;;;;;;20.02;9.23;;;;;;;4.79;94.78;98038.88;4958610;28;20373;-70
2022/03/22 07:16:53;;;;;;;17.57;9.37;;;;;;;4.92;96.21;98037.31;4959824;28;20255;-70
2022/03/22 07:19:21;;;;;;;15.32;8.70;;;;;;;5.27;83.20;98027.94;4955311;28;20045;-71
2022/03/22 07:21:47;;;;;;;15.32;8.68;;;;;;;5.66;76.70;98034.13;4960293;28;20034;-70
2022/03/22 07:24:15;;;;;;;14.93;8.52;;;;;;;5.90;71.93;98031.25;4956856;28;20109;-70
2022/03/22 07:26:42;;;;;;;15.75;8.35;;;;;;;6.09;65.26;98028.13;4960740;28;20034;-70
2022/03/22 07:29:08;;;;;;;16.65;8.57;;;;;;;6.34;62.17;98023.38;4955024;28;20038;-70
2022/03/22 07:31:38;;;;;;;14.55;8.20;;;;;;;6.59;60.33;98026.56;4957995;28;20429;-71
2022/03/22 07:34:15;;;;;;;14.07;8.18;;;;;;;6.75;57.56;98030.84;4956746;28;20089;-71
2022/03/22 07:36:42;;;;;;;14.00;7.82;;;;;;;6.86;56.37;98022.41;4957309;28;20141;-71
2022/03/22 07:39:08;;;;;;;23.50;9.02;;;;;;;6.92;58.33;98018.13;4956903;28;20154;-70
2022/03/22 07:41:36;;;;;;;13.30;7.97;;;;;;;7.08;57.02;98025.94;4957959;28;20042;-70
2022/03/22 07:44:03;;;;;;;14.90;7.88;;;;;;;7.23;52.90;98025.84;4956953;28;20520;-71
2022/03/22 07:46:29;;;;;;;14.60;6.95;;;;;;;7.42;52.03;98024.41;4957743;28;20062;-70
2022/03/22 07:52:57;;;;;;;13.90;8.70;;;;;;;7.48;53.95;98026.34;4958655;28;20133;-70
2022/03/22 07:54:24;;;;;;;12.73;7.22;;;;;;;7.63;51.47;98021.75;4959479;28;20043;-71
2022/03/22 07:56:51;;;;;;;12.23;7.22;;;;;;;7.71;49.01;98026.94;4959417;28;20572;-70
2022/03/22 07:59:16;;;;;;;15.55;9.05;;;;;;;7.79;49.31;98023.31;4955887;28;20080;-70
2022/03/22 08:01:42;;;;;;;13.90;8.52;;;;;;;7.90;48.41;98022.78;4960230;28;20455;-71
2022/03/22 08:04:07;;;;;;;16.42;8.23;;;;;;;7.98;48.58;98016.50;4959499;28;20057;-70
2022/03/22 08:06:33;;;;;;;16.20;8.88;;;;;;;8.04;49.19;98019.22;4962753;28;20077;-71
2022/03/22 08:08:58;;;;;;;15.00;8.13;;;;;;;7.97;48.39;98026.31;4960249;28;20075;-70
2022/03/22 08:11:24;;;;;;;15.43;8.40;;;;;;;7.85;49.56;98021.72;4960469;28;20043;-70
2022/03/22 08:13:49;;;;;;;15.68;8.57;;;;;;;7.86;47.18;98021.53;4961316;28;20529;-71
2022/03/22 08:16:18;;;;;;;15.52;8.75;;;;;;;7.86;46.72;98024.19;4960369;28;20452;-70
2022/03/22 08:18:43;;;;;;;18.00;9.00;;;;;;;8.02;46.08;98015.91;4960121;28;20521;-71
2022/03/22 08:21:08;;;;;;;18.25;8.40;;;;;;;8.16;44.25;98019.47;4956083;28;20034;-71
2022/03/22 08:23:34;;;;;;;17.65;8.77;;;;;;;8.28;44.47;98022.44;4948394;28;20126;-70
2022/03/22 08:25:59;;;;;;;13.85;8.48;;;;;;;8.36;43.77;98020.47;4963540;28;20561;-71
2022/03/22 08:28:25;;;;;;;17.42;8.75;;;;;;;8.56;44.78;98023.25;4962990;28;20559;-71
2022/03/22 08:30:50;;;;;;;12.77;8.32;;;;;;;8.78;43.45;98023.94;4963580;28;20042;-69
2022/03/22 08:33:17;;;;;;;17.73;8.75;;;;;;;8.79;45.12;98024.78;4964127;28;20046;-70
2022/03/22 08:35:47;;;;;;;15.10;8.57;;;;;;;8.91;45.52;98028.53;4965918;28;20494;-70
2022/03/22 08:38:19;;;;;;;14.52;8.65;;;;;;;9.03;44.64;98020.78;4963730;28;20042;-69
2022/03/22 08:40:45;;;;;;;17.15;9.25;;;;;;;9.07;45.38;98024.69;4961706;28;20500;-70
2022/03/22 08:43:11;;;;;;;18.67;9.20;;;;;;;9.25;44.70;98021.44;4962158;28;20045;-71
2022/03/22 08:45:37;;;;;;;14.57;8.88;;;;;;;9.40;44.19;98028.25;4962118;28;20436;-70
2022/03/22 08:48:09;;;;;;;16.65;9.55;;;;;;;9.52;44.19;98030.34;4961420;28;20620;-70
2022/03/22 08:50:35;;;;;;;16.95;8.77;;;;;;;9.60;42.61;98024.81;4960309;28;20332;-70
2022/03/22 08:53:01;;;;;;;14.48;7.57;;;;;;;9.78;41.23;98027.69;4961668;28;20417;-70
2022/03/22 08:55:27;;;;;;;15.98;8.18;;;;;;;9.87;39.83;98023.78;4961742;28;20353;-70
2022/03/22 08:57:53;;;;;;;13.10;7.07;;;;;;;9.90;39.96;98018.03;4960355;28;20046;-70
2022/03/22 09:00:20;;;;;;;13.82;8.52;;;;;;;9.93;39.50;98019.47;4962152;28;20038;-70
2022/03/22 09:02:47;;;;;;;15.13;8.40;;;;;;;10.04;39.28;98021.53;4963260;28;20045;-70
2022/03/22 09:07:58;;;;;;;16.05;7.97;;;;;;;10.15;38.64;98015.53;4959642;28;20557;-70
2022/03/22 09:10:29;;;;;;;21.33;8.80;;;;;;;10.22;39.45;98027.09;4961714;28;20043;-70
2022/03/22 09:12:55;;;;;;;14.32;8.35;;;;;;;10.39;39.74;98007.91;4962766;28;20490;-69
2022/03/22 09:15:22;;;;;;;15.95;7.28;;;;;;;10.43;38.05;98006.47;4963545;28;20074;-70
2022/03/22 09:17:52;;;;;;;11.13;6.68;;;;;;;10.48;38.02;98010.13;4964598;28;20074;-71
2022/03/22 09:20:19;;;;;;;16.70;8.55;;;;;;;10.60;42.72;98008.47;4961334;28;20080;-72
2022/03/22 09:22:51;;;;;;;14.00;7.15;;;;;;;10.73;43.09;98020.97;4962137;28;20529;-71
2022/03/22 09:25:16;;;;;;;;;;;;;;;10.72;42.22;98013.97;4966904;28;20165;-70
2022/03/22 09:27:42;;;;;;;12.45;6.70;;;;;;;10.87;70.93;98011.84;4964649;28;20343;-71
2022/03/22 09:30:09;;;;;;;17.67;8.13;;;;;;;10.93;40.65;98009.38;4963883;28;20038;-72
2022/03/22 09:32:35;;;;;;;15.25;8.45;;;;;;;11.04;41.03;98011.38;4959657;28;20580;-70
2022/03/22 09:35:06;;;;;;;15.40;8.10;;;;;;;11.10;39.51;98013.19;4960849;28;20061;-72
2022/03/22 09:37:32;;;;;;;13.20;8.27;;;;;;;11.28;55.29;98013.31;4960630;28;20074;-70
2022/03/22 09:39:58;;;;;;;17.02;9.45;;;;;;;11.49;42.14;98001.44;4965199;28;20451;-71
2022/03/22 09:42:24;;;;;;;13.73;8.65;;;;;;;11.63;45.01;98008.34;4961121;28;20031;-70
2022/03/22 09:44:50;;;;;;;14.95;8.63;;;;;;;11.62;40.39;98008.56;4963075;28;20390;-70
2022/03/22 09:47:16;;;;;;;14.73;8.75;;;;;;;11.71;56.26;98007.25;4960743;28;20444;-72
2022/03/22 09:49:43;;;;;;;18.38;8.52;;;;;;;11.88;59.53;98011.06;4933093;28;20051;-70
2022/03/22 09:52:10;;;;;;;16.23;8.40;;;;;;;11.95;68.74;98002.97;4932436;28;20071;-71
2022/03/22 09:54:35;;;;;;;17.63;8.52;;;;;;;12.07;54.00;97998.53;4932854;28;20123;-71
2022/03/22 09:57:04;;;;;;;15.95;9.18;;;;;;;12.24;48.04;98004.97;4932561;28;20043;-70
2022/03/22 09:59:33;;;;;;;15.38;8.70;;;;;;;12.21;56.88;98005.41;4932112;28;20046;-70
2022/03/22 10:02:06;;;;;;;16.05;8.45;;;;;;;12.21;55.49;98001.88;4935103;28;20490;-72
2022/03/22 10:04:36;;;;;;;18.25;8.40;;;;;;;12.46;58.69;97997.31;4932720;28;20053;-71
2022/03/22 10:07:03;;;;;;;13.55;8.57;;;;;;;12.63;43.54;97997.53;4928930;28;20050;-70
2022/03/22 10:09:36;;;;;;;14.63;7.97;;;;;;;12.79;45.87;97996.13;4932804;28;20046;-70
2022/03/22 10:12:02;;;;;;;19.63;9.38;;;;;;;13.01;43.83;97993.78;4935304;28;20452;-72
2022/03/22 10:14:36;;;;;;;16.30;8.77;;;;;;;13.25;42.09;97995.53;4930293;28;20367;-72
2022/03/22 10:17:14;;;;;;;14.98;8.60;;;;;;;13.42;85.23;97993.03;4931932;28;20039;-70
2022/03/22 10:19:45;;;;;;;14.98;9.50;;;;;;;13.63;40.39;97984.44;4932639;28;20047;-71
2022/03/22 10:22:11;;;;;;;17.50;9.13;;;;;;;13.84;47.12;97988.44;4930351;28;20126;-70
2022/03/22 10:24:47;;;;;;;12.43;8.73;;;;;;;14.20;35.20;97979.31;4932689;28;20047;-71
2022/03/22 10:27:28;;;;;;;14.10;8.27;;;;;;;14.61;70.27;97979.44;4934609;28;20043;-70
2022/03/22 10:29:55;;;;;;;17.70;7.67;;;;;;;15.69;47.53;97983.13;4933142;28;20046;-71
2022/03/22 10:32:32;;;;;;;13.48;8.40;;;;;;;16.82;37.75;97973.75;4931580;28;20060;-72
2022/03/22 10:35:10;;;;;;;13.85;8.43;;;;;;;17.19;28.49;97968.47;4934329;28;20170;-71
2022/03/22 10:37:36;;;;;;;14.15;8.82;;;;;;;18.53;33.17;97974.78;4933866;28;20137;-70
2022/03/22 10:40:03;;;;;;;14.05;8.55;;;;;;;20.17;29.85;97965.94;4933757;28;20043;-72
2022/03/22 10:42:31;;;;;;;17.00;9.93;;;;;;;21.99;23.90;97949.03;4932837;28;20039;-70
2022/03/22 10:45:00;;;;;;;18.42;9.13;;;;;;;22.06;21.92;97965.88;4930368;28;20135;-72
2022/03/22 10:47:26;;;;;;;13.52;8.77;;;;;;;21.82;21.56;97960.34;4919773;28;20147;-72
2022/03/22 10:50:05;;;;;;;15.45;8.05;;;;;;;21.77;21.44;97960.38;4960073;28;20442;-71
2022/03/22 10:52:37;;;;;;;15.80;7.70;;;;;;;20.42;22.13;97967.78;4960574;28;20076;-70
2022/03/22 10:55:03;;;;;;;12.38;6.68;;;;;;;20.78;21.37;97968.56;4959457;28;20189;-72
2022/03/22 10:57:32;;;;;;;13.55;8.30;;;;;;;21.93;26.56;97959.16;4958767;28;20443;-71
2022/03/22 11:00:08;;;;;;;15.65;8.75;;;;;;;21.57;21.55;97971.44;4959760;28;20310;-73
2022/03/22 11:02:37;;;;;;;12.73;6.78;;;;;;;22.57;20.25;97967.28;4978526;28;20050;-72
2022/03/22 11:05:04;;;;;;;16.52;7.85;;;;;;;21.61;23.66;97969.75;4977759;28;20495;-71
2022/03/22 11:07:39;;;;;;;14.57;8.68;;;;;;;21.35;20.27;97969.94;4980441;28;20604;-71
2022/03/22 11:10:05;;;;;;;16.05;9.23;;;;;;;22.54;20.88;97960.50;4978463;28;20046;-71
2022/03/22 11:12:33;;;;;;;12.27;7.82;;;;;;;24.37;18.91;97959.88;4980524;28;20500;-71
2022/03/22 11:15:00;;;;;;;15.10;8.70;;;;;;;25.36;21.41;97952.94;4979609;28;20320;-71
2022/03/22 11:17:28;;;;;;;16.73;8.82;;;;;;;27.01;17.73;97955.59;4980227;28;20113;-73
2022/03/22 11:19:59;;;;;;;15.07;7.65;;;;;;;27.59;23.31;97945.34;4978687;28;20485;-72
2022/03/22 11:22:25;;;;;;;17.45;8.40;;;;;;;28.97;21.57;97941.53;4979922;28;20030;-71
2022/03/22 11:24:50;;;;;;;14.93;8.55;;;;;;;29.31;15.94;97933.00;4980057;28;20440;-73
2022/03/22 11:27:16;;;;;;;13.65;8.57;;;;;;;27.67;16.69;97939.09;4980753;28;20408;-71
2022/03/22 11:29:42;;;;;;;12.80;8.25;;;;;;;25.74;16.86;97931.53;4978101;28;20051;-72
2022/03/22 11:34:58;;;;;;;12.88;7.28;;;;;;;25.66;16.04;97929.50;4980984;28;20042;-71
2022/03/22 11:37:31;;;;;;;13.02;7.93;;;;;;;24.82;16.79;97927.22;4285313;28;10000453;-72
2022/03/22 11:42:57;;;;;;;11.48;6.72;;;;;;;24.19;16.76;97925.94;4973019;28;20052;-71
2022/03/22 11:45:24;;;;;;;12.20;8.88;;;;;;;24.44;17.53;97927.47;4974877;28;20065;-71
2022/03/22 11:47:53;;;;;;;13.55;7.32;;;;;;;24.42;17.52;97918.72;4976507;28;20584;-71
2022/03/22 11:50:21;;;;;;;12.82;8.93;;;;;;;24.84;17.94;97919.53;4976404;28;20472;-72
2022/03/22 11:52:54;;;;;;;13.07;8.90;;;;;;;25.26;17.88;97921.91;4978090;28;20455;-72
2022/03/22 11:55:25;;;;;;;14.63;8.60;;;;;;;27.85;17.54;97920.63;4978975;28;20033;-72
2022/03/22 11:57:50;;;;;;;14.93;8.77;;;;;;;26.93;15.97;97915.19;4975145;28;20530;-72
2022/03/22 12:00:21;;;;;;;14.73;8.88;;;;;;;25.45;16.11;97910.81;4973783;28;20042;-72